sensor_id;sensor_type;location;lat;lon;timestamp;temperature;humidity
15003;DHT22;7597;53.590;10.020;2022-09-28T00:00:13;8.20;99.90
15003;DHT22;7597;53.590;10.020;2022-09-28T00:02:39;8.20;99.90
15003;DHT22;7597;53.590;10.020;2022-09-28T00:05:06;8.20;99.90
15003;DHT22;7597;53.590;10.020;2022-09-28T00:07:33;8.10;99.90
15003;DHT22;7597;53.590;10.020;2022-09-28T00:10:00;8.10;99.90
15003;DHT22;7597;53.590;10.020;2022-09-28T00:12:27;8.10;99.90
15003;DHT22;7597;53.590;10.020;2022-09-28T00:14:53;8.10;99.90
15003;DHT22;7597;53.590;10.020;2022-09-28T00:17:20;8.10;99.90
15003;DHT22;7597;53.590;10.020;2022-09-28T00:19:46;8.10;99.90
15003;DHT22;7597;53.590;10.020;2022-09-28T00:22:13;8.10;99.90
15003;DHT22;7597;53.590;10.020;2022-09-28T00:24:39;8.10;99.90
15003;DHT22;7597;53.590;10.020;2022-09-28T00:27:06;8.20;99.90
15003;DHT22;7597;53.590;10.020;2022-09-28T00:29:33;8.60;99.90
15003;DHT22;7597;53.590;10.020;2022-09-28T00:32:00;8.20;99.90
15003;DHT22;7597;53.590;10.020;2022-09-28T00:34:27;8.20;99.90
15003;DHT22;7597;53.590;10.020;2022-09-28T00:36:53;8.20;99.90
15003;DHT22;7597;53.590;10.020;2022-09-28T00:39:19;8.20;99.90
15003;DHT22;7597;53.590;10.020;2022-09-28T00:41:46;8.20;99.90
15003;DHT22;7597;53.590;10.020;2022-09-28T00:44:36;8.20;99.90
15003;DHT22;7597;53.590;10.020;2022-09-28T00:47:10;8.20;99.90
15003;DHT22;7597;53.590;10.020;2022-09-28T00:49:47;8.10;99.90
15003;DHT22;7597;53.590;10.020;2022-09-28T00:52:15;8.10;99.90
15003;DHT22;7597;53.590;10.020;2022-09-28T00:54:40;8.10;99.90
15003;DHT22;7597;53.590;10.020;2022-09-28T00:57:06;8.10;99.90
15003;DHT22;7597;53.590;10.020;2022-09-28T00:59:33;8.10;99.90
15003;DHT22;7597;53.590;10.020;2022-09-28T01:02:00;8.10;99.90
15003;DHT22;7597;53.590;10.020;2022-09-28T01:04:27;8.10;99.90
15003;DHT22;7597;53.590;10.020;2022-09-28T01:06:54;8.00;99.90
15003;DHT22;7597;53.590;10.020;2022-09-28T01:09:21;8.00;99.90
15003;DHT22;7597;53.590;10.020;2022-09-28T01:11:48;8.00;99.90
15003;DHT22;7597;53.590;10.020;2022-09-28T01:14:15;7.90;99.90
15003;DHT22;7597;53.590;10.020;2022-09-28T01:17:03;7.90;99.90
15003;DHT22;7597;53.590;10.020;2022-09-28T01:19:49;7.90;99.90
15003;DHT22;7597;53.590;10.020;2022-09-28T01:22:47;7.90;99.90
15003;DHT22;7597;53.590;10.020;2022-09-28T01:25:00;7.90;99.90
15003;DHT22;7597;53.590;10.020;2022-09-28T01:27:30;7.80;99.90
15003;DHT22;7597;53.590;10.020;2022-09-28T01:30:00;7.80;99.90
15003;DHT22;7597;53.590;10.020;2022-09-28T01:32:31;7.80;99.90
15003;DHT22;7597;53.590;10.020;2022-09-28T01:35:00;7.80;99.90
15003;DHT22;7597;53.590;10.020;2022-09-28T01:37:25;7.70;99.90
15003;DHT22;7597;53.590;10.020;2022-09-28T01:39:51;7.70;99.90
15003;DHT22;7597;53.590;10.020;2022-09-28T01:42:21;7.70;99.90
15003;DHT22;7597;53.590;10.020;2022-09-28T01:44:46;7.60;99.90
15003;DHT22;7597;53.590;10.020;2022-09-28T01:47:13;7.60;99.90
15003;DHT22;7597;53.590;10.020;2022-09-28T01:49:43;7.60;99.90
15003;DHT22;7597;53.590;10.020;2022-09-28T01:52:30;7.50;99.90
15003;DHT22;7597;53.590;10.020;2022-09-28T01:55:08;7.40;99.90
15003;DHT22;7597;53.590;10.020;2022-09-28T01:57:40;7.30;99.90
15003;DHT22;7597;53.590;10.020;2022-09-28T02:00:07;7.20;99.90
15003;DHT22;7597;53.590;10.020;2022-09-28T02:02:38;7.20;99.90
15003;DHT22;7597;53.590;10.020;2022-09-28T02:05:06;7.20;99.90
15003;DHT22;7597;53.590;10.020;2022-09-28T02:07:50;7.20;99.90
15003;DHT22;7597;53.590;10.020;2022-09-28T02:10:18;7.20;99.90
15003;DHT22;7597;53.590;10.020;2022-09-28T02:12:47;7.10;99.90
15003;DHT22;7597;53.590;10.020;2022-09-28T02:15:15;7.10;99.90
15003;DHT22;7597;53.590;10.020;2022-09-28T02:17:41;7.00;99.90
15003;DHT22;7597;53.590;10.020;2022-09-28T02:20:07;7.00;99.90
15003;DHT22;7597;53.590;10.020;2022-09-28T02:22:38;6.90;99.90
15003;DHT22;7597;53.590;10.020;2022-09-28T02:25:08;6.90;99.90
15003;DHT22;7597;53.590;10.020;2022-09-28T02:27:42;6.80;99.90
15003;DHT22;7597;53.590;10.020;2022-09-28T02:30:08;6.90;99.90
15003;DHT22;7597;53.590;10.020;2022-09-28T02:32:35;6.90;99.90
15003;DHT22;7597;53.590;10.020;2022-09-28T02:35:01;6.90;99.90
15003;DHT22;7597;53.590;10.020;2022-09-28T02:37:28;6.90;99.90
15003;DHT22;7597;53.590;10.020;2022-09-28T02:39:54;7.00;99.90
15003;DHT22;7597;53.590;10.020;2022-09-28T02:42:24;7.00;99.90
15003;DHT22;7597;53.590;10.020;2022-09-28T02:44:59;7.00;99.90
15003;DHT22;7597;53.590;10.020;2022-09-28T02:48:07;7.10;99.90
15003;DHT22;7597;53.590;10.020;2022-09-28T02:55:32;7.20;99.90
15003;DHT22;7597;53.590;10.020;2022-09-28T02:58:03;7.10;99.90
15003;DHT22;7597;53.590;10.020;2022-09-28T03:00:27;7.00;99.90
15003;DHT22;7597;53.590;10.020;2022-09-28T03:03:13;6.90;99.90
15003;DHT22;7597;53.590;10.020;2022-09-28T03:05:45;7.00;99.90
15003;DHT22;7597;53.590;10.020;2022-09-28T03:08:47;6.90;99.90
15003;DHT22;7597;53.590;10.020;2022-09-28T03:10:58;6.90;99.90
15003;DHT22;7597;53.590;10.020;2022-09-28T03:13:24;6.90;99.90
15003;DHT22;7597;53.590;10.020;2022-09-28T03:15:51;6.90;99.90
15003;DHT22;7597;53.590;10.020;2022-09-28T03:18:18;6.90;99.90
15003;DHT22;7597;53.590;10.020;2022-09-28T03:20:45;7.00;99.90
15003;DHT22;7597;53.590;10.020;2022-09-28T03:23:11;7.00;99.90
15003;DHT22;7597;53.590;10.020;2022-09-28T03:25:39;7.00;99.90
15003;DHT22;7597;53.590;10.020;2022-09-28T03:28:05;7.00;99.90
15003;DHT22;7597;53.590;10.020;2022-09-28T03:30:32;7.00;99.90
15003;DHT22;7597;53.590;10.020;2022-09-28T03:32:59;7.00;99.90
15003;DHT22;7597;53.590;10.020;2022-09-28T03:35:25;7.00;99.90
15003;DHT22;7597;53.590;10.020;2022-09-28T03:37:53;6.90;99.90
15003;DHT22;7597;53.590;10.020;2022-09-28T03:40:19;6.90;99.90
15003;DHT22;7597;53.590;10.020;2022-09-28T03:42:46;6.90;99.90
15003;DHT22;7597;53.590;10.020;2022-09-28T03:45:13;6.80;99.90
15003;DHT22;7597;53.590;10.020;2022-09-28T03:47:43;6.80;99.90
15003;DHT22;7597;53.590;10.020;2022-09-28T03:50:07;6.80;99.90
15003;DHT22;7597;53.590;10.020;2022-09-28T03:52:33;6.80;99.90
15003;DHT22;7597;53.590;10.020;2022-09-28T03:55:00;6.80;99.90
15003;DHT22;7597;53.590;10.020;2022-09-28T03:57:27;6.70;99.90
15003;DHT22;7597;53.590;10.020;2022-09-28T03:59:54;6.70;99.90
15003;DHT22;7597;53.590;10.020;2022-09-28T04:02:20;6.70;99.90
15003;DHT22;7597;53.590;10.020;2022-09-28T04:04:47;6.60;99.90
15003;DHT22;7597;53.590;10.020;2022-09-28T04:07:14;6.70;99.90
15003;DHT22;7597;53.590;10.020;2022-09-28T04:09:40;6.80;99.90
15003;DHT22;7597;53.590;10.020;2022-09-28T04:12:07;6.80;99.90
15003;DHT22;7597;53.590;10.020;2022-09-28T04:14:33;7.50;99.90
15003;DHT22;7597;53.590;10.020;2022-09-28T04:17:00;6.80;99.90
15003;DHT22;7597;53.590;10.020;2022-09-28T04:19:27;6.80;99.90
15003;DHT22;7597;53.590;10.020;2022-09-28T04:21:54;6.90;99.90
15003;DHT22;7597;53.590;10.020;2022-09-28T04:24:21;6.90;99.90
15003;DHT22;7597;53.590;10.020;2022-09-28T04:26:47;6.90;99.90
15003;DHT22;7597;53.590;10.020;2022-09-28T04:29:14;7.00;99.90
15003;DHT22;7597;53.590;10.020;2022-09-28T04:31:45;7.00;99.90
15003;DHT22;7597;53.590;10.020;2022-09-28T04:34:12;7.00;99.90
15003;DHT22;7597;53.590;10.020;2022-09-28T04:36:37;7.00;99.90
15003;DHT22;7597;53.590;10.020;2022-09-28T04:39:04;7.00;99.90
15003;DHT22;7597;53.590;10.020;2022-09-28T04:41:31;7.00;99.90
15003;DHT22;7597;53.590;10.020;2022-09-28T04:43:58;7.00;99.90
15003;DHT22;7597;53.590;10.020;2022-09-28T04:46:24;7.00;99.90
15003;DHT22;7597;53.590;10.020;2022-09-28T04:48:52;7.00;99.90
15003;DHT22;7597;53.590;10.020;2022-09-28T04:51:18;6.90;99.90
15003;DHT22;7597;53.590;10.020;2022-09-28T04:53:45;6.90;99.90
15003;DHT22;7597;53.590;10.020;2022-09-28T04:56:12;6.90;1.00
15003;DHT22;7597;53.590;10.020;2022-09-28T04:58:39;6.90;1.00
15003;DHT22;7597;53.590;10.020;2022-09-28T05:01:06;6.90;1.00
15003;DHT22;7597;53.590;10.020;2022-09-28T05:03:32;6.90;1.00
15003;DHT22;7597;53.590;10.020;2022-09-28T05:06:00;6.90;1.00
15003;DHT22;7597;53.590;10.020;2022-09-28T05:08:26;6.90;1.00
15003;DHT22;7597;53.590;10.020;2022-09-28T05:10:59;6.90;1.00
15003;DHT22;7597;53.590;10.020;2022-09-28T05:13:26;6.80;1.00
15003;DHT22;7597;53.590;10.020;2022-09-28T05:15:53;6.80;1.00
15003;DHT22;7597;53.590;10.020;2022-09-28T05:18:19;6.70;1.00
15003;DHT22;7597;53.590;10.020;2022-09-28T05:20:46;6.80;1.00
15003;DHT22;7597;53.590;10.020;2022-09-28T05:23:13;6.80;1.00
15003;DHT22;7597;53.590;10.020;2022-09-28T05:25:40;6.80;1.00
15003;DHT22;7597;53.590;10.020;2022-09-28T05:28:06;6.80;1.00
15003;DHT22;7597;53.590;10.020;2022-09-28T05:30:33;6.80;1.00
15003;DHT22;7597;53.590;10.020;2022-09-28T05:32:59;6.90;1.00
15003;DHT22;7597;53.590;10.020;2022-09-28T05:35:26;6.90;1.00
15003;DHT22;7597;53.590;10.020;2022-09-28T05:37:52;7.00;1.00
15003;DHT22;7597;53.590;10.020;2022-09-28T05:40:21;7.00;1.00
15003;DHT22;7597;53.590;10.020;2022-09-28T05:45:36;6.70;1.00
15003;DHT22;7597;53.590;10.020;2022-09-28T05:48:05;6.90;1.00
15003;DHT22;7597;53.590;10.020;2022-09-28T05:50:41;7.00;1.00
15003;DHT22;7597;53.590;10.020;2022-09-28T05:53:08;7.10;1.00
15003;DHT22;7597;53.590;10.020;2022-09-28T05:55:35;6.90;1.00
15003;DHT22;7597;53.590;10.020;2022-09-28T05:58:02;6.80;1.00
15003;DHT22;7597;53.590;10.020;2022-09-28T06:00:28;6.90;1.00
15003;DHT22;7597;53.590;10.020;2022-09-28T06:03:00;6.90;1.00
15003;DHT22;7597;53.590;10.020;2022-09-28T06:05:33;6.90;1.00
15003;DHT22;7597;53.590;10.020;2022-09-28T06:33:04;7.80;1.00
15003;DHT22;7597;53.590;10.020;2022-09-28T06:35:30;7.30;1.00
15003;DHT22;7597;53.590;10.020;2022-09-28T06:37:57;7.10;1.00
15003;DHT22;7597;53.590;10.020;2022-09-28T06:40:23;7.10;1.00
15003;DHT22;7597;53.590;10.020;2022-09-28T06:42:57;6.90;1.00
15003;DHT22;7597;53.590;10.020;2022-09-28T06:45:24;7.20;1.00
15003;DHT22;7597;53.590;10.020;2022-09-28T06:47:55;7.20;1.00
15003;DHT22;7597;53.590;10.020;2022-09-28T06:50:22;7.20;1.00
15003;DHT22;7597;53.590;10.020;2022-09-28T06:52:49;7.20;1.00
15003;DHT22;7597;53.590;10.020;2022-09-28T06:55:15;7.30;1.00
15003;DHT22;7597;53.590;10.020;2022-09-28T06:57:42;7.20;1.00
15003;DHT22;7597;53.590;10.020;2022-09-28T07:00:10;7.20;1.00
15003;DHT22;7597;53.590;10.020;2022-09-28T07:02:36;7.20;1.00
15003;DHT22;7597;53.590;10.020;2022-09-28T07:05:04;7.30;1.00
15003;DHT22;7597;53.590;10.020;2022-09-28T07:07:31;7.30;1.00
15003;DHT22;7597;53.590;10.020;2022-09-28T07:09:58;7.50;1.00
15003;DHT22;7597;53.590;10.020;2022-09-28T07:12:24;7.60;1.00
15003;DHT22;7597;53.590;10.020;2022-09-28T07:14:51;7.70;1.00
15003;DHT22;7597;53.590;10.020;2022-09-28T07:17:19;7.70;1.00
15003;DHT22;7597;53.590;10.020;2022-09-28T07:19:46;7.70;99.90
15003;DHT22;7597;53.590;10.020;2022-09-28T07:22:13;7.70;99.90
15003;DHT22;7597;53.590;10.020;2022-09-28T07:24:39;7.80;99.90
15003;DHT22;7597;53.590;10.020;2022-09-28T07:27:06;7.80;99.90
15003;DHT22;7597;53.590;10.020;2022-09-28T07:29:33;7.90;99.90
15003;DHT22;7597;53.590;10.020;2022-09-28T07:32:00;7.80;99.90
15003;DHT22;7597;53.590;10.020;2022-09-28T07:34:26;7.80;99.90
15003;DHT22;7597;53.590;10.020;2022-09-28T07:42:37;8.50;99.90
15003;DHT22;7597;53.590;10.020;2022-09-28T07:45:04;8.50;99.90
15003;DHT22;7597;53.590;10.020;2022-09-28T07:47:30;8.50;99.90
15003;DHT22;7597;53.590;10.020;2022-09-28T07:50:13;8.30;99.90
15003;DHT22;7597;53.590;10.020;2022-09-28T07:55:27;8.40;99.90
